createdAt,value
2019-05-03T00:00:10.330Z,5.75
2019-05-03T00:02:42.720Z,6.60
2019-05-03T00:05:32.482Z,6.87
2019-05-03T00:08:04.684Z,6.60
2019-05-03T00:10:37.173Z,6.83
2019-05-03T00:13:08.405Z,7.37
2019-05-03T00:15:43.388Z,6.45
2019-05-03T00:18:14.450Z,6.97
2019-05-03T00:20:45.381Z,6.40
2019-05-03T00:23:16.060Z,7.65
2019-05-03T00:25:46.994Z,7.62
2019-05-03T00:28:18.154Z,6.42
2019-05-03T00:30:49.241Z,5.75
2019-05-03T00:33:22.279Z,6.22
2019-05-03T00:35:56.753Z,5.50
2019-05-03T00:38:27.842Z,6.28
2019-05-03T00:40:58.799Z,6.28
2019-05-03T00:43:31.655Z,6.45
2019-05-03T00:46:02.124Z,6.45
2019-05-03T00:48:32.976Z,7.62
2019-05-03T00:51:03.863Z,6.87
2019-05-03T00:53:34.893Z,6.67
2019-05-03T00:56:05.752Z,6.42
2019-05-03T00:58:38.477Z,5.90
2019-05-03T01:01:09.511Z,6.47
2019-05-03T01:03:41.824Z,6.58
2019-05-03T01:06:12.551Z,7.30
2019-05-03T01:08:43.510Z,7.10
2019-05-03T01:11:14.392Z,7.65
2019-05-03T01:13:45.426Z,7.80
2019-05-03T01:16:22.697Z,8.23
2019-05-03T01:18:53.304Z,7.60
2019-05-03T01:21:24.565Z,8.83
2019-05-03T01:23:55.601Z,7.83
2019-05-03T01:26:26.586Z,7.60
2019-05-03T01:28:57.545Z,8.63
2019-05-03T01:31:28.603Z,8.28
2019-05-03T01:33:59.564Z,8.28
2019-05-03T01:36:32.099Z,8.20
2019-05-03T01:39:03.078Z,8.65
2019-05-03T01:41:33.871Z,9.13
2019-05-03T01:44:05.033Z,10.25
2019-05-03T01:46:36.196Z,9.40
2019-05-03T01:49:08.793Z,9.10
2019-05-03T01:51:42.067Z,8.95
2019-05-03T01:54:13.030Z,9.33
2019-05-03T01:56:56.096Z,9.40
2019-05-03T01:59:16.718Z,10.28
2019-05-03T02:01:55.346Z,9.60
2019-05-03T02:04:33.872Z,10.15
2019-05-03T02:07:05.234Z,11.90
2019-05-03T02:09:35.994Z,11.35
2019-05-03T02:12:07.030Z,11.57
2019-05-03T02:14:38.013Z,11.85
2019-05-03T02:17:08.946Z,13.78
2019-05-03T02:19:41.991Z,11.75
2019-05-03T02:22:13.215Z,12.18
2019-05-03T02:24:44.275Z,13.78
2019-05-03T02:27:15.235Z,14.93
2019-05-03T02:29:46.320Z,14.10
2019-05-03T02:32:17.253Z,14.15
2019-05-03T02:34:48.208Z,12.28
2019-05-03T02:37:19.110Z,13.13
2019-05-03T02:39:53.221Z,12.35
2019-05-03T02:42:26.495Z,11.75
2019-05-03T02:44:57.592Z,12.20
2019-05-03T02:47:29.989Z,12.25
2019-05-03T02:50:02.586Z,12.95
2019-05-03T02:52:37.521Z,12.18
2019-05-03T02:55:09.941Z,12.55
2019-05-03T02:57:40.773Z,12.23
2019-05-03T03:00:16.306Z,12.28
2019-05-03T03:02:46.649Z,10.78
2019-05-03T03:05:17.625Z,10.10
2019-05-03T03:07:50.741Z,10.13
2019-05-03T03:10:21.705Z,10.03
2019-05-03T03:12:55.418Z,10.82
2019-05-03T03:15:27.813Z,11.03
2019-05-03T03:18:01.021Z,10.32
2019-05-03T03:20:35.584Z,10.55
2019-05-03T03:23:07.231Z,9.83
2019-05-03T03:25:40.347Z,10.48
2019-05-03T03:28:12.907Z,10.38
2019-05-03T03:31:02.708Z,8.58
2019-05-03T03:33:33.670Z,9.48
2019-05-03T03:36:31.544Z,9.93
2019-05-03T03:38:36.813Z,10.63
2019-05-03T03:41:08.050Z,10.75
2019-05-03T03:43:40.031Z,10.80
2019-05-03T03:46:12.266Z,10.68
2019-05-03T03:48:46.044Z,11.68
2019-05-03T03:51:19.790Z,10.78
2019-05-03T03:53:55.634Z,10.68
2019-05-03T03:56:29.243Z,10.90
2019-05-03T03:59:00.334Z,10.58
2019-05-03T04:01:31.396Z,11.10
2019-05-03T04:04:02.015Z,10.55
2019-05-03T04:06:41.848Z,11.12
2019-05-03T04:09:15.869Z,10.98
2019-05-03T04:11:46.454Z,11.50
2019-05-03T04:14:19.273Z,12.10
2019-05-03T04:16:51.842Z,11.40
2019-05-03T04:19:25.096Z,12.03
2019-05-03T04:21:56.318Z,12.10
2019-05-03T04:24:28.626Z,12.88
2019-05-03T04:27:18.687Z,13.32
2019-05-03T04:29:39.653Z,12.63
2019-05-03T04:32:10.916Z,13.38
2019-05-03T04:34:41.874Z,13.53
2019-05-03T04:37:15.905Z,15.18
2019-05-03T04:39:46.067Z,12.95
2019-05-03T04:42:17.204Z,14.30
2019-05-03T04:44:48.062Z,13.50
2019-05-03T04:47:19.224Z,13.53
2019-05-03T04:49:50.181Z,13.75
2019-05-03T04:52:21.217Z,13.78
2019-05-03T04:54:56.866Z,13.20
2019-05-03T04:57:40.155Z,12.10
2019-05-03T05:00:00.658Z,13.20
2019-05-03T05:02:31.509Z,13.45
2019-05-03T05:05:02.569Z,15.20
2019-05-03T05:07:35.023Z,14.40
2019-05-03T05:10:07.961Z,12.80
2019-05-03T05:12:38.717Z,12.85
2019-05-03T05:15:09.696Z,13.90
2019-05-03T05:17:48.104Z,14.03
2019-05-03T05:20:20.906Z,13.10
2019-05-03T05:22:51.962Z,12.88
2019-05-03T05:25:27.315Z,13.35
2019-05-03T05:28:08.687Z,13.30
2019-05-03T05:30:39.650Z,13.62
2019-05-03T05:33:12.156Z,12.25
2019-05-03T05:35:44.358Z,12.13
2019-05-03T05:38:15.286Z,15.25
2019-05-03T05:40:46.142Z,21.93
2019-05-03T05:43:17.097Z,22.27
2019-05-03T05:45:48.060Z,14.38
2019-05-03T05:48:20.551Z,16.15
2019-05-03T05:50:51.422Z,13.40
2019-05-03T05:53:22.791Z,15.13
2019-05-03T05:55:57.942Z,13.83
2019-05-03T05:58:34.821Z,13.05
2019-05-03T06:01:10.290Z,14.13
2019-05-03T06:03:41.146Z,12.58
2019-05-03T06:06:15.276Z,12.50
2019-05-03T06:08:47.666Z,13.28
2019-05-03T06:11:36.319Z,14.10
2019-05-03T06:14:08.810Z,13.35
2019-05-03T06:16:41.405Z,13.18
2019-05-03T06:19:14.726Z,13.05
2019-05-03T06:21:50.484Z,13.50
2019-05-03T06:24:24.914Z,13.65
2019-05-03T06:26:57.307Z,13.18
2019-05-03T06:29:28.370Z,13.05
2019-05-03T06:32:17.329Z,12.68
2019-05-03T06:34:48.388Z,12.88
2019-05-03T06:37:20.980Z,12.33
2019-05-03T06:39:53.953Z,11.50
2019-05-03T06:42:25.504Z,12.10
2019-05-03T06:44:59.233Z,12.18
2019-05-03T06:47:29.213Z,11.95
2019-05-03T06:50:00.053Z,11.88
2019-05-03T06:52:31.011Z,12.35
2019-05-03T06:55:06.417Z,11.18
2019-05-03T06:57:35.426Z,11.03
2019-05-03T07:00:09.615Z,11.90
2019-05-03T07:02:42.105Z,11.22
2019-05-03T07:05:25.118Z,10.48
2019-05-03T07:07:57.523Z,11.28
2019-05-03T07:10:30.036Z,11.03
2019-05-03T07:13:08.889Z,11.08
2019-05-03T07:15:39.723Z,10.85
2019-05-03T07:18:10.561Z,10.53
2019-05-03T07:20:45.918Z,10.35
2019-05-03T07:23:17.000Z,10.45
2019-05-03T07:25:47.954Z,10.95
2019-05-03T07:28:18.895Z,10.78
2019-05-03T07:30:49.870Z,11.57
2019-05-03T07:33:34.823Z,12.73
2019-05-03T07:36:06.317Z,10.18
2019-05-03T07:38:37.373Z,10.10
2019-05-03T07:41:08.329Z,10.25
2019-05-03T07:43:39.390Z,10.78
2019-05-03T07:46:10.349Z,9.48
2019-05-03T07:48:41.088Z,8.90
2019-05-03T07:51:14.321Z,9.50
2019-05-03T07:53:45.133Z,9.83
2019-05-03T07:56:16.636Z,9.15
2019-05-03T07:58:59.309Z,11.12
2019-05-03T08:01:25.025Z,9.15
2019-05-03T08:03:55.348Z,8.40
2019-05-03T08:06:30.677Z,7.95
2019-05-03T08:09:01.454Z,17.15
2019-05-03T08:11:32.411Z,12.90
2019-05-03T08:14:04.998Z,10.58
2019-05-03T08:16:36.268Z,9.80
2019-05-03T08:19:07.211Z,9.48
2019-05-03T08:21:38.976Z,8.68
2019-05-03T08:24:09.843Z,7.30
2019-05-03T08:26:40.720Z,6.83
2019-05-03T08:29:15.910Z,7.37
2019-05-03T08:31:45.702Z,13.40
2019-05-03T08:34:21.263Z,9.58
2019-05-03T08:37:05.925Z,8.98
2019-05-03T08:39:36.765Z,8.78
2019-05-03T08:42:10.808Z,7.37
2019-05-03T08:44:41.953Z,8.85
2019-05-03T08:47:12.712Z,7.53
2019-05-03T08:49:45.056Z,7.50
2019-05-03T08:52:15.839Z,13.53
2019-05-03T08:54:46.813Z,12.30
2019-05-03T08:57:17.890Z,8.88
2019-05-03T08:59:48.851Z,7.58
2019-05-03T09:02:19.909Z,8.28
2019-05-03T09:04:50.868Z,7.60
2019-05-03T09:07:21.604Z,7.70
2019-05-03T09:10:00.148Z,8.25
2019-05-03T09:12:34.286Z,8.33
2019-05-03T09:15:05.730Z,7.67
2019-05-03T09:17:36.279Z,8.28
2019-05-03T09:20:08.154Z,8.55
2019-05-03T09:22:38.724Z,7.85
2019-05-03T09:25:09.783Z,8.38
2019-05-03T09:27:40.334Z,7.25
2019-05-03T09:30:11.697Z,7.75
2019-05-03T09:32:44.625Z,7.95
2019-05-03T09:35:29.083Z,8.18
2019-05-03T09:37:47.853Z,8.05
2019-05-03T09:40:18.817Z,8.28
2019-05-03T09:42:49.664Z,7.60
2019-05-03T09:45:21.392Z,8.33
2019-05-03T09:47:51.973Z,8.00
2019-05-03T09:50:24.722Z,10.40
2019-05-03T09:52:55.603Z,10.18
2019-05-03T09:55:28.241Z,7.65
2019-05-03T09:57:59.185Z,9.30
2019-05-03T10:00:30.142Z,10.15
2019-05-03T10:03:01.115Z,8.23
2019-05-03T10:05:31.971Z,6.87
2019-05-03T10:08:05.006Z,14.43
2019-05-03T10:10:53.328Z,9.80
2019-05-03T10:13:26.929Z,8.73
2019-05-03T10:15:56.552Z,9.58
2019-05-03T10:18:27.629Z,8.88
2019-05-03T10:20:58.465Z,8.20
2019-05-03T10:23:36.789Z,8.30
2019-05-03T10:26:08.620Z,7.25
2019-05-03T10:28:39.444Z,6.50
2019-05-03T10:31:10.071Z,6.80
2019-05-03T10:33:51.378Z,6.80
2019-05-03T10:36:22.216Z,7.40
2019-05-03T10:38:55.203Z,8.35
2019-05-03T10:41:25.411Z,7.45
2019-05-03T10:43:56.338Z,7.12
2019-05-03T10:46:27.193Z,7.45
2019-05-03T10:48:58.254Z,7.12
2019-05-03T10:51:30.728Z,7.40
2019-05-03T10:54:02.012Z,8.65
2019-05-03T10:56:35.819Z,7.35
2019-05-03T10:59:08.631Z,6.47
2019-05-03T11:01:54.495Z,7.67
2019-05-03T11:04:25.690Z,7.42
2019-05-03T11:06:56.645Z,7.78
2019-05-03T11:09:27.297Z,9.38
2019-05-03T11:11:59.688Z,8.98
2019-05-03T11:14:31.054Z,9.10
2019-05-03T11:17:01.709Z,8.55
2019-05-03T11:19:34.591Z,7.92
2019-05-03T11:22:05.669Z,8.40
2019-05-03T11:24:36.525Z,8.15
2019-05-03T11:27:11.665Z,8.18
2019-05-03T11:29:42.329Z,8.78
2019-05-03T11:32:14.964Z,8.45
2019-05-03T11:34:50.571Z,9.43
2019-05-03T11:37:39.422Z,9.15
2019-05-03T11:40:10.832Z,8.60
2019-05-03T11:42:41.356Z,5.87
2019-05-03T11:45:12.519Z,5.62
2019-05-03T11:47:45.751Z,5.50
2019-05-03T11:50:16.261Z,5.47
2019-05-03T11:52:47.426Z,6.53
2019-05-03T11:55:18.508Z,6.70
2019-05-03T11:57:49.358Z,6.47
2019-05-03T12:00:25.286Z,6.55
2019-05-03T12:03:00.795Z,5.47
2019-05-03T12:05:32.343Z,6.08
2019-05-03T12:08:05.299Z,5.50
2019-05-03T12:10:49.798Z,6.70
2019-05-03T12:13:15.861Z,7.05
2019-05-03T12:15:46.830Z,7.30
2019-05-03T12:18:18.397Z,6.60
2019-05-03T12:20:50.371Z,6.92
2019-05-03T12:23:21.891Z,6.72
2019-05-03T12:25:53.722Z,6.33
2019-05-03T12:28:25.691Z,5.92
2019-05-03T12:30:56.467Z,6.15
2019-05-03T12:33:27.409Z,5.58
2019-05-03T12:35:58.262Z,6.15
2019-05-03T12:38:29.224Z,6.78
2019-05-03T12:41:00.079Z,6.22
2019-05-03T12:43:30.986Z,6.67
2019-05-03T12:46:02.013Z,6.30
2019-05-03T12:48:32.765Z,6.80
2019-05-03T12:51:06.097Z,6.70
2019-05-03T12:53:35.927Z,6.37
2019-05-03T12:56:11.250Z,6.37
2019-05-03T12:58:45.551Z,6.50
2019-05-03T13:01:25.097Z,7.83
2019-05-03T13:03:57.232Z,9.48
2019-05-03T13:06:29.724Z,6.87
2019-05-03T13:09:00.586Z,7.72
2019-05-03T13:11:34.733Z,6.97
2019-05-03T13:14:05.549Z,6.70
2019-05-03T13:16:36.406Z,7.30
2019-05-03T13:19:07.484Z,7.58
2019-05-03T13:21:38.439Z,6.85
2019-05-03T13:24:22.488Z,7.75
2019-05-03T13:26:42.301Z,7.62
2019-05-03T13:29:15.273Z,7.90
2019-05-03T13:31:58.429Z,8.85
2019-05-03T13:34:17.940Z,7.95
2019-05-03T13:36:49.000Z,7.55
2019-05-03T13:39:19.837Z,8.50
2019-05-03T13:41:50.692Z,9.25
2019-05-03T13:44:21.771Z,8.33
2019-05-03T13:46:58.216Z,9.70
2019-05-03T13:49:31.324Z,9.70
2019-05-03T13:52:09.551Z,11.30
2019-05-03T13:54:48.877Z,11.48
2019-05-03T13:57:30.965Z,9.50
2019-05-03T14:00:02.587Z,12.50
2019-05-03T14:02:35.385Z,11.85
2019-05-03T14:05:08.819Z,12.55
2019-05-03T14:07:39.468Z,12.37
2019-05-03T14:10:10.737Z,10.50
2019-05-03T14:12:41.386Z,8.45
2019-05-03T14:15:14.797Z,10.25
2019-05-03T14:17:45.140Z,7.20
2019-05-03T14:20:35.006Z,8.30
2019-05-03T14:23:05.295Z,8.55
2019-05-03T14:25:36.203Z,7.45
2019-05-03T14:28:07.184Z,8.35
2019-05-03T14:30:38.040Z,14.20
2019-05-03T14:33:09.098Z,8.63
2019-05-03T14:35:40.057Z,8.63
2019-05-03T14:38:10.995Z,8.58
2019-05-03T14:40:41.854Z,6.53
2019-05-03T14:43:12.726Z,7.05
2019-05-03T14:45:43.669Z,7.05
2019-05-03T14:48:15.238Z,6.47
2019-05-03T14:50:46.214Z,6.05
2019-05-03T14:53:16.748Z,6.03
2019-05-03T14:55:58.136Z,6.62
2019-05-03T14:58:47.012Z,7.03
2019-05-03T15:01:28.487Z,7.33
2019-05-03T15:03:59.564Z,7.42
2019-05-03T15:06:30.403Z,6.53
2019-05-03T15:09:01.482Z,6.80
2019-05-03T15:11:34.430Z,5.97
2019-05-03T15:14:05.705Z,9.73
2019-05-03T15:16:37.633Z,10.75
2019-05-03T15:19:08.587Z,7.62
2019-05-03T15:21:41.201Z,6.45
2019-05-03T15:24:14.574Z,5.70
2019-05-03T15:26:45.556Z,6.60
2019-05-03T15:29:16.513Z,7.60
2019-05-03T15:31:47.352Z,10.88
2019-05-03T15:34:18.313Z,12.30
2019-05-03T15:36:49.285Z,7.15
2019-05-03T15:39:20.048Z,8.20
2019-05-03T15:41:50.592Z,7.12
2019-05-03T15:44:40.568Z,6.25
2019-05-03T15:47:16.164Z,6.35
2019-05-03T15:49:47.091Z,7.55
2019-05-03T15:52:17.944Z,6.83
2019-05-03T15:54:48.888Z,7.10
2019-05-03T15:57:19.742Z,8.83
2019-05-03T15:59:50.615Z,8.30
2019-05-03T16:02:21.676Z,6.08
2019-05-03T16:04:52.633Z,5.90
2019-05-03T16:07:25.019Z,5.78
2019-05-03T16:09:55.785Z,6.37
2019-05-03T16:12:26.739Z,6.37
2019-05-03T16:14:57.811Z,5.90
2019-05-03T16:17:29.678Z,5.85
2019-05-03T16:20:00.637Z,6.33
2019-05-03T16:22:31.493Z,6.85
2019-05-03T16:25:02.434Z,7.03
2019-05-03T16:27:34.927Z,6.65
2019-05-03T16:30:09.158Z,6.75
2019-05-03T16:32:40.135Z,7.17
2019-05-03T16:35:11.175Z,6.83
2019-05-03T16:37:42.254Z,6.90
2019-05-03T16:40:14.218Z,7.00
2019-05-03T16:42:45.603Z,6.22
2019-05-03T16:45:17.089Z,6.45
2019-05-03T16:47:47.930Z,7.00
2019-05-03T16:50:18.972Z,6.20
2019-05-03T16:52:49.948Z,6.60
2019-05-03T16:55:20.892Z,6.72
2019-05-03T16:57:51.864Z,6.30
2019-05-03T17:00:25.002Z,6.78
2019-05-03T17:02:55.828Z,6.00
2019-05-03T17:05:45.121Z,6.62
2019-05-03T17:08:20.756Z,6.78
2019-05-03T17:10:59.283Z,6.80
2019-05-03T17:13:30.343Z,7.65
2019-05-03T17:16:01.184Z,7.42
2019-05-03T17:18:31.935Z,7.28
2019-05-03T17:21:03.015Z,8.03
2019-05-03T17:23:35.323Z,7.00
2019-05-03T17:26:06.055Z,6.83
2019-05-03T17:28:37.114Z,7.20
2019-05-03T17:31:08.076Z,7.28
2019-05-03T17:33:50.466Z,7.58
2019-05-03T17:36:11.404Z,7.40
2019-05-03T17:38:44.282Z,6.92
2019-05-03T17:41:19.373Z,7.05
2019-05-03T17:43:57.284Z,6.45
2019-05-03T17:46:28.348Z,6.95
2019-05-03T17:48:59.205Z,6.90
2019-05-03T17:51:40.904Z,6.65
2019-05-03T17:54:28.427Z,7.53
2019-05-03T17:57:07.143Z,6.80
2019-05-03T17:59:44.486Z,7.67
2019-05-03T18:02:29.004Z,7.28
2019-05-03T18:05:17.670Z,6.85
2019-05-03T18:07:54.569Z,7.30
2019-05-03T18:10:26.959Z,7.55
2019-05-03T18:12:57.994Z,6.78
2019-05-03T18:15:28.872Z,7.28
2019-05-03T18:17:59.910Z,7.50
2019-05-03T18:20:30.770Z,8.18
2019-05-03T18:23:01.847Z,7.22
2019-05-03T18:25:32.686Z,6.97
2019-05-03T18:28:03.541Z,7.60
2019-05-03T18:30:34.958Z,8.83
2019-05-03T18:33:05.889Z,10.45
2019-05-03T18:35:36.946Z,8.25
2019-05-03T18:38:07.886Z,7.97
2019-05-03T18:40:38.844Z,8.15
2019-05-03T18:43:17.377Z,7.70
2019-05-03T18:45:54.544Z,7.40
2019-05-03T18:48:26.774Z,7.08
2019-05-03T18:50:57.731Z,7.30
2019-05-03T18:53:28.586Z,7.53
2019-05-03T18:55:59.647Z,7.33
2019-05-03T18:58:30.589Z,8.23
2019-05-03T19:01:01.665Z,7.42
2019-05-03T19:03:34.412Z,7.83
2019-05-03T19:06:06.467Z,8.45
2019-05-03T19:08:42.201Z,7.28
2019-05-03T19:11:32.778Z,7.53
2019-05-03T19:14:09.700Z,8.58
2019-05-03T19:16:57.210Z,7.80
2019-05-03T19:19:41.888Z,7.40
2019-05-03T19:22:12.931Z,7.12
2019-05-03T19:24:44.509Z,6.78
2019-05-03T19:27:15.480Z,6.15
2019-05-03T19:29:46.544Z,7.20
2019-05-03T19:32:17.497Z,6.35
2019-05-03T19:34:51.482Z,6.72
2019-05-03T19:37:20.845Z,6.12
2019-05-03T19:39:51.703Z,6.85
2019-05-03T19:42:24.892Z,5.87
2019-05-03T19:44:57.534Z,6.42
2019-05-03T19:47:28.565Z,6.95
2019-05-03T19:49:59.511Z,7.67
2019-05-03T19:52:32.122Z,7.80
2019-05-03T19:55:04.779Z,7.67
2019-05-03T19:57:37.104Z,7.40
2019-05-03T20:00:11.530Z,7.75
2019-05-03T20:02:47.100Z,7.53
2019-05-03T20:05:31.662Z,8.05
2019-05-03T20:08:10.295Z,8.60
2019-05-03T20:10:41.349Z,7.85
2019-05-03T20:13:12.190Z,8.48
2019-05-03T20:15:45.069Z,7.70
2019-05-03T20:18:55.520Z,7.40
2019-05-03T20:21:29.247Z,6.97
2019-05-03T20:24:00.326Z,7.78
2019-05-03T20:26:31.286Z,8.10
2019-05-03T20:29:02.141Z,8.03
2019-05-03T20:31:35.210Z,7.85
2019-05-03T20:34:05.538Z,8.13
2019-05-03T20:36:36.960Z,7.83
2019-05-03T20:39:08.124Z,7.75
2019-05-03T20:41:38.877Z,7.90
2019-05-03T20:44:14.433Z,7.92
2019-05-03T20:46:46.917Z,7.85
2019-05-03T20:49:17.872Z,7.72
2019-05-03T20:51:51.282Z,7.62
2019-05-03T20:54:21.336Z,7.92
2019-05-03T20:56:52.297Z,7.92
2019-05-03T20:59:23.135Z,7.83
2019-05-03T21:01:54.608Z,7.30
2019-05-03T21:04:25.613Z,7.92
2019-05-03T21:06:56.668Z,7.53
2019-05-03T21:09:27.600Z,6.67
2019-05-03T21:11:58.660Z,7.85
2019-05-03T21:14:29.620Z,8.10
2019-05-03T21:17:11.522Z,7.62
2019-05-03T21:19:46.775Z,7.70
2019-05-03T21:22:19.251Z,7.80
2019-05-03T21:24:51.868Z,8.73
2019-05-03T21:27:24.661Z,7.85
2019-05-03T21:29:55.445Z,7.62
2019-05-03T21:32:26.475Z,7.45
2019-05-03T21:34:57.331Z,7.78
2019-05-03T21:37:28.394Z,7.58
2019-05-03T21:39:59.350Z,7.60
2019-05-03T21:42:30.395Z,7.85
2019-05-03T21:45:01.251Z,8.30
2019-05-03T21:47:35.128Z,7.70
2019-05-03T21:50:08.792Z,8.03
2019-05-03T21:52:39.954Z,8.20
2019-05-03T21:55:10.828Z,8.60
2019-05-03T21:57:41.481Z,7.95
2019-05-03T22:00:14.547Z,8.48
2019-05-03T22:02:45.137Z,8.33
2019-05-03T22:05:16.596Z,8.30
2019-05-03T22:07:47.769Z,8.40
2019-05-03T22:10:19.015Z,8.35
2019-05-03T22:12:49.684Z,8.60
2019-05-03T22:15:22.281Z,7.80
2019-05-03T22:17:54.771Z,9.00
2019-05-03T22:20:34.927Z,8.23
2019-05-03T22:23:14.993Z,7.75
2019-05-03T22:25:45.753Z,8.33
2019-05-03T22:28:16.605Z,8.68
2019-05-03T22:30:47.665Z,8.08
2019-05-03T22:33:18.627Z,8.28
2019-05-03T22:35:49.583Z,7.92
2019-05-03T22:38:20.541Z,9.33
2019-05-03T22:40:51.399Z,8.00
2019-05-03T22:43:22.460Z,7.78
2019-05-03T22:45:54.802Z,7.90
2019-05-03T22:48:26.915Z,7.92
2019-05-03T22:50:57.874Z,7.85
2019-05-03T22:53:29.059Z,8.38
2019-05-03T22:55:59.996Z,7.80
2019-05-03T22:58:32.412Z,7.85
2019-05-03T23:01:03.379Z,7.15
2019-05-03T23:03:36.160Z,8.90
2019-05-03T23:06:19.329Z,7.55
2019-05-03T23:08:39.416Z,9.25
2019-05-03T23:11:10.455Z,8.08
2019-05-03T23:13:41.310Z,7.97
2019-05-03T23:16:14.432Z,9.70
2019-05-03T23:18:45.066Z,9.90
2019-05-03T23:21:17.661Z,10.60
2019-05-03T23:23:49.657Z,10.50
2019-05-03T23:26:20.626Z,9.80
2019-05-03T23:28:51.669Z,10.50
2019-05-03T23:31:25.094Z,9.85
2019-05-03T23:33:55.939Z,10.00
2019-05-03T23:36:33.098Z,10.08
2019-05-03T23:38:59.483Z,9.50
2019-05-03T23:41:30.355Z,10.03
2019-05-03T23:44:01.399Z,9.28
2019-05-03T23:46:34.807Z,9.58
2019-05-03T23:49:07.014Z,9.85
2019-05-03T23:51:45.543Z,9.88
2019-05-03T23:54:16.707Z,9.48
2019-05-03T23:56:47.542Z,9.03
2019-05-03T23:59:18.621Z,8.25
